sensor_id;sensor_type;location;lat;lon;timestamp;P1;durP1;ratioP1;P2;durP2;ratioP2
43008;SDS011;28634;45.454;11.106;2022-08-19T00:02:02;7.10;;;2.08;;
43008;SDS011;28634;45.454;11.106;2022-08-19T00:04:30;9.52;;;1.90;;
43008;SDS011;28634;45.454;11.106;2022-08-19T00:07:04;7.53;;;1.80;;
43008;SDS011;28634;45.454;11.106;2022-08-19T00:09:31;5.00;;;1.70;;
43008;SDS011;28634;45.454;11.106;2022-08-19T00:11:59;6.53;;;2.20;;
43008;SDS011;28634;45.454;11.106;2022-08-19T00:14:29;8.02;;;2.35;;
43008;SDS011;28634;45.454;11.106;2022-08-19T00:16:58;7.25;;;2.58;;
43008;SDS011;28634;45.454;11.106;2022-08-19T00:19:25;8.63;;;2.78;;
43008;SDS011;28634;45.454;11.106;2022-08-19T00:21:53;5.78;;;2.72;;
43008;SDS011;28634;45.454;11.106;2022-08-19T00:24:22;4.93;;;2.58;;
43008;SDS011;28634;45.454;11.106;2022-08-19T00:26:49;8.88;;;3.05;;
43008;SDS011;28634;45.454;11.106;2022-08-19T00:29:18;4.70;;;1.83;;
43008;SDS011;28634;45.454;11.106;2022-08-19T00:31:47;4.93;;;1.98;;
43008;SDS011;28634;45.454;11.106;2022-08-19T00:34:16;6.20;;;2.42;;
43008;SDS011;28634;45.454;11.106;2022-08-19T00:36:43;7.60;;;2.80;;
43008;SDS011;28634;45.454;11.106;2022-08-19T00:39:10;4.90;;;1.90;;
43008;SDS011;28634;45.454;11.106;2022-08-19T00:41:38;5.97;;;1.90;;
43008;SDS011;28634;45.454;11.106;2022-08-19T00:44:10;7.22;;;2.03;;
43008;SDS011;28634;45.454;11.106;2022-08-19T00:46:40;4.63;;;2.00;;
43008;SDS011;28634;45.454;11.106;2022-08-19T00:49:12;6.68;;;2.05;;
43008;SDS011;28634;45.454;11.106;2022-08-19T00:51:45;4.82;;;2.13;;
43008;SDS011;28634;45.454;11.106;2022-08-19T00:54:16;6.95;;;2.35;;
43008;SDS011;28634;45.454;11.106;2022-08-19T00:56:53;6.93;;;2.65;;
43008;SDS011;28634;45.454;11.106;2022-08-19T00:59:21;8.02;;;2.80;;
43008;SDS011;28634;45.454;11.106;2022-08-19T01:02:09;6.68;;;2.60;;
43008;SDS011;28634;45.454;11.106;2022-08-19T01:04:36;10.07;;;3.03;;
43008;SDS011;28634;45.454;11.106;2022-08-19T01:07:03;7.40;;;2.38;;
43008;SDS011;28634;45.454;11.106;2022-08-19T01:09:30;8.48;;;3.30;;
43008;SDS011;28634;45.454;11.106;2022-08-19T01:11:57;8.40;;;3.60;;
43008;SDS011;28634;45.454;11.106;2022-08-19T01:14:24;10.32;;;3.72;;
43008;SDS011;28634;45.454;11.106;2022-08-19T01:16:52;7.97;;;3.60;;
43008;SDS011;28634;45.454;11.106;2022-08-19T01:19:24;9.07;;;3.88;;
43008;SDS011;28634;45.454;11.106;2022-08-19T01:25:02;7.85;;;2.67;;
43008;SDS011;28634;45.454;11.106;2022-08-19T01:27:40;7.70;;;3.05;;
43008;SDS011;28634;45.454;11.106;2022-08-19T01:30:16;10.02;;;3.17;;
43008;SDS011;28634;45.454;11.106;2022-08-19T01:32:51;10.20;;;2.55;;
43008;SDS011;28634;45.454;11.106;2022-08-19T01:35:21;6.95;;;2.80;;
43008;SDS011;28634;45.454;11.106;2022-08-19T01:37:52;8.65;;;2.85;;
43008;SDS011;28634;45.454;11.106;2022-08-19T01:40:22;7.28;;;2.53;;
43008;SDS011;28634;45.454;11.106;2022-08-19T01:42:51;8.32;;;3.00;;
43008;SDS011;28634;45.454;11.106;2022-08-19T01:45:20;7.03;;;2.70;;
43008;SDS011;28634;45.454;11.106;2022-08-19T01:47:49;9.05;;;2.90;;
43008;SDS011;28634;45.454;11.106;2022-08-19T01:50:27;8.50;;;2.45;;
43008;SDS011;28634;45.454;11.106;2022-08-19T01:52:55;8.30;;;2.80;;
43008;SDS011;28634;45.454;11.106;2022-08-19T01:55:33;9.43;;;3.05;;
43008;SDS011;28634;45.454;11.106;2022-08-19T01:58:08;7.45;;;2.75;;
43008;SDS011;28634;45.454;11.106;2022-08-19T02:00:41;6.85;;;3.22;;
43008;SDS011;28634;45.454;11.106;2022-08-19T02:03:09;8.13;;;3.33;;
43008;SDS011;28634;45.454;11.106;2022-08-19T02:05:37;7.00;;;2.70;;
43008;SDS011;28634;45.454;11.106;2022-08-19T02:08:06;10.70;;;3.50;;
43008;SDS011;28634;45.454;11.106;2022-08-19T02:10:38;10.13;;;3.15;;
43008;SDS011;28634;45.454;11.106;2022-08-19T02:13:07;9.40;;;3.38;;
43008;SDS011;28634;45.454;11.106;2022-08-19T02:15:35;6.38;;;3.13;;
43008;SDS011;28634;45.454;11.106;2022-08-19T02:18:03;6.80;;;3.35;;
43008;SDS011;28634;45.454;11.106;2022-08-19T02:20:31;8.60;;;3.38;;
43008;SDS011;28634;45.454;11.106;2022-08-19T02:22:58;10.23;;;3.22;;
43008;SDS011;28634;45.454;11.106;2022-08-19T02:25:28;9.52;;;3.15;;
43008;SDS011;28634;45.454;11.106;2022-08-19T02:27:55;10.23;;;2.90;;
43008;SDS011;28634;45.454;11.106;2022-08-19T02:30:23;8.25;;;3.00;;
43008;SDS011;28634;45.454;11.106;2022-08-19T02:32:51;10.43;;;3.20;;
43008;SDS011;28634;45.454;11.106;2022-08-19T02:35:19;7.43;;;2.92;;
43008;SDS011;28634;45.454;11.106;2022-08-19T02:37:47;7.35;;;3.20;;
43008;SDS011;28634;45.454;11.106;2022-08-19T02:40:33;8.85;;;3.05;;
43008;SDS011;28634;45.454;11.106;2022-08-19T02:43:04;9.50;;;3.17;;
43008;SDS011;28634;45.454;11.106;2022-08-19T02:45:36;6.70;;;2.63;;
43008;SDS011;28634;45.454;11.106;2022-08-19T02:48:07;9.07;;;3.28;;
43008;SDS011;28634;45.454;11.106;2022-08-19T02:50:47;7.45;;;2.65;;
43008;SDS011;28634;45.454;11.106;2022-08-19T02:53:19;8.52;;;2.60;;
43008;SDS011;28634;45.454;11.106;2022-08-19T02:55:48;9.35;;;3.15;;
43008;SDS011;28634;45.454;11.106;2022-08-19T02:58:17;9.32;;;3.10;;
43008;SDS011;28634;45.454;11.106;2022-08-19T03:00:47;8.65;;;2.80;;
43008;SDS011;28634;45.454;11.106;2022-08-19T03:03:17;7.95;;;2.63;;
43008;SDS011;28634;45.454;11.106;2022-08-19T03:05:45;5.30;;;2.65;;
43008;SDS011;28634;45.454;11.106;2022-08-19T03:08:22;9.65;;;3.20;;
43008;SDS011;28634;45.454;11.106;2022-08-19T03:10:52;9.57;;;3.05;;
43008;SDS011;28634;45.454;11.106;2022-08-19T03:13:19;8.43;;;3.38;;
43008;SDS011;28634;45.454;11.106;2022-08-19T03:15:47;6.68;;;2.75;;
43008;SDS011;28634;45.454;11.106;2022-08-19T03:18:15;10.02;;;3.15;;
43008;SDS011;28634;45.454;11.106;2022-08-19T03:20:47;8.35;;;2.97;;
43008;SDS011;28634;45.454;11.106;2022-08-19T03:23:16;7.43;;;2.85;;
43008;SDS011;28634;45.454;11.106;2022-08-19T03:25:45;7.72;;;2.85;;
43008;SDS011;28634;45.454;11.106;2022-08-19T03:28:33;6.47;;;2.63;;
43008;SDS011;28634;45.454;11.106;2022-08-19T03:31:02;8.77;;;2.92;;
43008;SDS011;28634;45.454;11.106;2022-08-19T03:33:52;8.35;;;3.42;;
43008;SDS011;28634;45.454;11.106;2022-08-19T03:36:24;7.97;;;2.70;;
43008;SDS011;28634;45.454;11.106;2022-08-19T03:38:55;7.57;;;2.87;;
43008;SDS011;28634;45.454;11.106;2022-08-19T03:41:29;7.43;;;3.20;;
43008;SDS011;28634;45.454;11.106;2022-08-19T03:44:14;8.35;;;3.08;;
43008;SDS011;28634;45.454;11.106;2022-08-19T03:46:53;8.00;;;2.65;;
43008;SDS011;28634;45.454;11.106;2022-08-19T03:49:23;10.80;;;3.33;;
43008;SDS011;28634;45.454;11.106;2022-08-19T03:51:54;7.30;;;2.80;;
43008;SDS011;28634;45.454;11.106;2022-08-19T03:54:24;7.90;;;2.90;;
43008;SDS011;28634;45.454;11.106;2022-08-19T03:56:55;10.02;;;2.72;;
43008;SDS011;28634;45.454;11.106;2022-08-19T03:59:32;7.72;;;2.92;;
43008;SDS011;28634;45.454;11.106;2022-08-19T04:02:02;6.75;;;3.10;;
43008;SDS011;28634;45.454;11.106;2022-08-19T04:04:36;9.20;;;3.13;;
43008;SDS011;28634;45.454;11.106;2022-08-19T04:07:08;7.53;;;2.85;;
43008;SDS011;28634;45.454;11.106;2022-08-19T04:09:36;8.15;;;2.70;;
43008;SDS011;28634;45.454;11.106;2022-08-19T04:12:03;9.40;;;2.88;;
43008;SDS011;28634;45.454;11.106;2022-08-19T04:14:32;8.57;;;2.90;;
43008;SDS011;28634;45.454;11.106;2022-08-19T04:17:00;5.78;;;2.53;;
43008;SDS011;28634;45.454;11.106;2022-08-19T04:19:32;8.13;;;3.10;;
43008;SDS011;28634;45.454;11.106;2022-08-19T04:22:01;7.95;;;2.65;;
43008;SDS011;28634;45.454;11.106;2022-08-19T04:24:30;9.57;;;3.15;;
43008;SDS011;28634;45.454;11.106;2022-08-19T04:26:59;9.85;;;2.80;;
43008;SDS011;28634;45.454;11.106;2022-08-19T04:29:27;6.95;;;2.65;;
43008;SDS011;28634;45.454;11.106;2022-08-19T04:31:55;9.82;;;2.95;;
43008;SDS011;28634;45.454;11.106;2022-08-19T04:34:23;6.82;;;2.70;;
43008;SDS011;28634;45.454;11.106;2022-08-19T04:36:53;9.05;;;2.75;;
43008;SDS011;28634;45.454;11.106;2022-08-19T04:39:23;8.73;;;3.00;;
43008;SDS011;28634;45.454;11.106;2022-08-19T04:42:14;9.63;;;2.70;;
43008;SDS011;28634;45.454;11.106;2022-08-19T04:45:05;8.18;;;2.90;;
43008;SDS011;28634;45.454;11.106;2022-08-19T04:47:37;6.50;;;2.65;;
43008;SDS011;28634;45.454;11.106;2022-08-19T04:50:17;8.73;;;2.53;;
43008;SDS011;28634;45.454;11.106;2022-08-19T04:52:44;6.10;;;2.50;;
43008;SDS011;28634;45.454;11.106;2022-08-19T04:55:12;7.18;;;2.60;;
43008;SDS011;28634;45.454;11.106;2022-08-19T04:57:40;8.98;;;2.65;;
43008;SDS011;28634;45.454;11.106;2022-08-19T05:00:08;8.00;;;2.83;;
43008;SDS011;28634;45.454;11.106;2022-08-19T05:02:36;7.05;;;2.95;;
43008;SDS011;28634;45.454;11.106;2022-08-19T05:05:04;8.10;;;3.45;;
43008;SDS011;28634;45.454;11.106;2022-08-19T05:07:34;8.48;;;4.00;;
43008;SDS011;28634;45.454;11.106;2022-08-19T05:10:04;6.07;;;2.55;;
43008;SDS011;28634;45.454;11.106;2022-08-19T05:12:32;6.53;;;2.90;;
43008;SDS011;28634;45.454;11.106;2022-08-19T05:14:59;8.05;;;2.70;;
43008;SDS011;28634;45.454;11.106;2022-08-19T05:17:28;11.50;;;3.40;;
43008;SDS011;28634;45.454;11.106;2022-08-19T05:20:03;9.20;;;2.80;;
43008;SDS011;28634;45.454;11.106;2022-08-19T05:22:50;7.35;;;3.22;;
43008;SDS011;28634;45.454;11.106;2022-08-19T05:25:18;8.55;;;2.92;;
43008;SDS011;28634;45.454;11.106;2022-08-19T05:27:46;11.25;;;2.97;;
43008;SDS011;28634;45.454;11.106;2022-08-19T05:30:15;6.93;;;2.50;;
43008;SDS011;28634;45.454;11.106;2022-08-19T05:32:42;9.82;;;2.63;;
43008;SDS011;28634;45.454;11.106;2022-08-19T05:35:10;9.40;;;2.92;;
43008;SDS011;28634;45.454;11.106;2022-08-19T05:37:38;9.10;;;3.22;;
43008;SDS011;28634;45.454;11.106;2022-08-19T05:40:07;5.50;;;2.10;;
43008;SDS011;28634;45.454;11.106;2022-08-19T05:42:35;9.38;;;5.25;;
43008;SDS011;28634;45.454;11.106;2022-08-19T05:45:03;14.40;;;6.45;;
43008;SDS011;28634;45.454;11.106;2022-08-19T05:47:30;9.65;;;5.32;;
43008;SDS011;28634;45.454;11.106;2022-08-19T05:49:58;8.63;;;4.13;;
43008;SDS011;28634;45.454;11.106;2022-08-19T05:52:30;7.75;;;3.33;;
43008;SDS011;28634;45.454;11.106;2022-08-19T05:54:58;8.65;;;3.33;;
43008;SDS011;28634;45.454;11.106;2022-08-19T05:57:25;9.13;;;3.80;;
43008;SDS011;28634;45.454;11.106;2022-08-19T05:59:55;10.82;;;3.72;;
43008;SDS011;28634;45.454;11.106;2022-08-19T06:02:27;13.63;;;3.75;;
43008;SDS011;28634;45.454;11.106;2022-08-19T06:04:57;10.73;;;3.20;;
43008;SDS011;28634;45.454;11.106;2022-08-19T06:07:24;11.05;;;3.13;;
43008;SDS011;28634;45.454;11.106;2022-08-19T06:09:51;13.27;;;3.08;;
43008;SDS011;28634;45.454;11.106;2022-08-19T06:12:29;10.38;;;3.60;;
43008;SDS011;28634;45.454;11.106;2022-08-19T06:15:02;10.80;;;3.47;;
43008;SDS011;28634;45.454;11.106;2022-08-19T06:17:32;8.60;;;2.95;;
43008;SDS011;28634;45.454;11.106;2022-08-19T06:20:02;10.00;;;3.05;;
43008;SDS011;28634;45.454;11.106;2022-08-19T06:22:31;7.80;;;3.35;;
43008;SDS011;28634;45.454;11.106;2022-08-19T06:25:07;9.07;;;2.80;;
43008;SDS011;28634;45.454;11.106;2022-08-19T06:27:35;9.38;;;2.88;;
43008;SDS011;28634;45.454;11.106;2022-08-19T06:30:13;14.30;;;4.15;;
43008;SDS011;28634;45.454;11.106;2022-08-19T06:32:41;7.85;;;3.13;;
43008;SDS011;28634;45.454;11.106;2022-08-19T06:35:08;7.30;;;2.97;;
43008;SDS011;28634;45.454;11.106;2022-08-19T06:37:35;7.88;;;2.90;;
43008;SDS011;28634;45.454;11.106;2022-08-19T06:40:08;8.65;;;3.40;;
43008;SDS011;28634;45.454;11.106;2022-08-19T06:42:37;9.90;;;3.20;;
43008;SDS011;28634;45.454;11.106;2022-08-19T06:45:10;8.45;;;3.20;;
43008;SDS011;28634;45.454;11.106;2022-08-19T06:47:37;9.57;;;3.67;;
43008;SDS011;28634;45.454;11.106;2022-08-19T06:50:04;8.13;;;3.33;;
43008;SDS011;28634;45.454;11.106;2022-08-19T06:52:32;9.00;;;3.78;;
43008;SDS011;28634;45.454;11.106;2022-08-19T06:55:03;8.95;;;3.67;;
43008;SDS011;28634;45.454;11.106;2022-08-19T06:57:32;10.80;;;4.70;;
43008;SDS011;28634;45.454;11.106;2022-08-19T07:00:00;8.02;;;4.07;;
43008;SDS011;28634;45.454;11.106;2022-08-19T07:02:27;7.78;;;3.47;;
43008;SDS011;28634;45.454;11.106;2022-08-19T07:04:54;11.30;;;4.88;;
43008;SDS011;28634;45.454;11.106;2022-08-19T07:07:24;10.65;;;4.72;;
43008;SDS011;28634;45.454;11.106;2022-08-19T07:09:51;10.98;;;4.68;;
43008;SDS011;28634;45.454;11.106;2022-08-19T07:12:25;9.65;;;4.78;;
43008;SDS011;28634;45.454;11.106;2022-08-19T07:14:56;12.45;;;4.78;;
43008;SDS011;28634;45.454;11.106;2022-08-19T07:17:24;13.32;;;5.20;;
43008;SDS011;28634;45.454;11.106;2022-08-19T07:19:52;10.55;;;4.70;;
43008;SDS011;28634;45.454;11.106;2022-08-19T07:22:20;12.55;;;4.10;;
43008;SDS011;28634;45.454;11.106;2022-08-19T07:24:50;10.48;;;5.35;;
43008;SDS011;28634;45.454;11.106;2022-08-19T07:27:19;11.88;;;5.63;;
43008;SDS011;28634;45.454;11.106;2022-08-19T07:29:50;8.00;;;4.85;;
43008;SDS011;28634;45.454;11.106;2022-08-19T07:32:22;9.02;;;4.75;;
43008;SDS011;28634;45.454;11.106;2022-08-19T07:34:53;10.05;;;5.63;;
43008;SDS011;28634;45.454;11.106;2022-08-19T07:37:22;12.18;;;5.60;;
43008;SDS011;28634;45.454;11.106;2022-08-19T07:39:55;10.25;;;5.32;;
43008;SDS011;28634;45.454;11.106;2022-08-19T07:42:23;11.20;;;5.50;;
43008;SDS011;28634;45.454;11.106;2022-08-19T07:44:50;12.98;;;5.88;;
43008;SDS011;28634;45.454;11.106;2022-08-19T07:47:17;11.75;;;6.35;;
43008;SDS011;28634;45.454;11.106;2022-08-19T07:50:07;11.57;;;6.35;;
43008;SDS011;28634;45.454;11.106;2022-08-19T07:52:38;13.07;;;6.63;;
43008;SDS011;28634;45.454;11.106;2022-08-19T07:55:07;12.70;;;6.50;;
43008;SDS011;28634;45.454;11.106;2022-08-19T07:57:56;11.25;;;5.28;;
43008;SDS011;28634;45.454;11.106;2022-08-19T08:00:28;11.95;;;5.45;;
43008;SDS011;28634;45.454;11.106;2022-08-19T08:02:55;9.43;;;5.82;;
43008;SDS011;28634;45.454;11.106;2022-08-19T08:05:23;11.57;;;6.15;;
43008;SDS011;28634;45.454;11.106;2022-08-19T08:08:10;6.20;;;3.20;;
43008;SDS011;28634;45.454;11.106;2022-08-19T08:10:57;7.15;;;3.83;;
43008;SDS011;28634;45.454;11.106;2022-08-19T08:13:25;8.77;;;3.95;;
43008;SDS011;28634;45.454;11.106;2022-08-19T08:15:54;7.40;;;4.43;;
43008;SDS011;28634;45.454;11.106;2022-08-19T08:18:25;8.40;;;3.45;;
43008;SDS011;28634;45.454;11.106;2022-08-19T08:20:53;7.13;;;3.75;;
43008;SDS011;28634;45.454;11.106;2022-08-19T08:23:20;9.43;;;3.70;;
43008;SDS011;28634;45.454;11.106;2022-08-19T08:25:54;9.77;;;4.10;;
43008;SDS011;28634;45.454;11.106;2022-08-19T08:28:24;9.25;;;4.18;;
43008;SDS011;28634;45.454;11.106;2022-08-19T08:30:55;7.82;;;4.25;;
43008;SDS011;28634;45.454;11.106;2022-08-19T08:33:23;8.88;;;3.53;;
43008;SDS011;28634;45.454;11.106;2022-08-19T08:36:06;8.35;;;4.30;;
43008;SDS011;28634;45.454;11.106;2022-08-19T08:38:34;10.15;;;3.97;;
43008;SDS011;28634;45.454;11.106;2022-08-19T08:43:55;8.60;;;3.70;;
43008;SDS011;28634;45.454;11.106;2022-08-19T08:46:25;7.28;;;3.83;;
43008;SDS011;28634;45.454;11.106;2022-08-19T08:52:11;9.57;;;5.05;;
43008;SDS011;28634;45.454;11.106;2022-08-19T08:54:57;9.68;;;5.22;;
43008;SDS011;28634;45.454;11.106;2022-08-19T08:57:39;9.30;;;5.07;;
43008;SDS011;28634;45.454;11.106;2022-08-19T09:00:10;10.88;;;4.47;;
43008;SDS011;28634;45.454;11.106;2022-08-19T09:02:43;8.40;;;4.33;;
43008;SDS011;28634;45.454;11.106;2022-08-19T09:05:16;11.57;;;5.03;;
43008;SDS011;28634;45.454;11.106;2022-08-19T09:07:59;9.35;;;4.57;;
43008;SDS011;28634;45.454;11.106;2022-08-19T09:10:46;12.02;;;7.90;;
43008;SDS011;28634;45.454;11.106;2022-08-19T09:15:58;12.63;;;9.18;;
43008;SDS011;28634;45.454;11.106;2022-08-19T09:21:15;10.43;;;8.23;;
43008;SDS011;28634;45.454;11.106;2022-08-19T09:23:42;10.82;;;7.90;;
43008;SDS011;28634;45.454;11.106;2022-08-19T09:26:11;8.25;;;7.15;;
43008;SDS011;28634;45.454;11.106;2022-08-19T09:28:43;8.63;;;6.60;;
43008;SDS011;28634;45.454;11.106;2022-08-19T09:31:15;6.85;;;5.00;;
43008;SDS011;28634;45.454;11.106;2022-08-19T09:33:44;7.07;;;5.50;;
43008;SDS011;28634;45.454;11.106;2022-08-19T09:36:12;5.47;;;3.10;;
43008;SDS011;28634;45.454;11.106;2022-08-19T09:39:00;6.35;;;4.03;;
43008;SDS011;28634;45.454;11.106;2022-08-19T09:41:27;7.10;;;4.63;;
43008;SDS011;28634;45.454;11.106;2022-08-19T09:43:55;9.52;;;4.35;;
43008;SDS011;28634;45.454;11.106;2022-08-19T09:46:26;6.53;;;4.10;;
43008;SDS011;28634;45.454;11.106;2022-08-19T09:48:56;6.88;;;3.63;;
43008;SDS011;28634;45.454;11.106;2022-08-19T09:51:31;5.78;;;3.80;;
43008;SDS011;28634;45.454;11.106;2022-08-19T09:54:01;5.38;;;3.67;;
43008;SDS011;28634;45.454;11.106;2022-08-19T09:56:30;6.03;;;3.75;;
43008;SDS011;28634;45.454;11.106;2022-08-19T09:58:59;5.85;;;3.35;;
43008;SDS011;28634;45.454;11.106;2022-08-19T10:01:28;5.53;;;2.80;;
43008;SDS011;28634;45.454;11.106;2022-08-19T10:03:57;6.10;;;2.80;;
43008;SDS011;28634;45.454;11.106;2022-08-19T10:06:25;5.30;;;2.45;;
43008;SDS011;28634;45.454;11.106;2022-08-19T10:09:12;4.43;;;2.63;;
43008;SDS011;28634;45.454;11.106;2022-08-19T10:11:41;4.95;;;2.80;;
43008;SDS011;28634;45.454;11.106;2022-08-19T10:14:19;4.05;;;2.20;;
43008;SDS011;28634;45.454;11.106;2022-08-19T10:16:49;4.70;;;2.28;;
43008;SDS011;28634;45.454;11.106;2022-08-19T10:19:16;5.32;;;2.17;;
43008;SDS011;28634;45.454;11.106;2022-08-19T10:21:51;4.20;;;2.33;;
43008;SDS011;28634;45.454;11.106;2022-08-19T10:24:21;3.90;;;2.13;;
43008;SDS011;28634;45.454;11.106;2022-08-19T10:26:50;4.90;;;2.10;;
43008;SDS011;28634;45.454;11.106;2022-08-19T10:29:22;5.80;;;2.50;;
43008;SDS011;28634;45.454;11.106;2022-08-19T10:31:59;4.47;;;2.88;;
43008;SDS011;28634;45.454;11.106;2022-08-19T10:34:38;4.82;;;2.72;;
43008;SDS011;28634;45.454;11.106;2022-08-19T10:37:14;5.38;;;2.60;;
43008;SDS011;28634;45.454;11.106;2022-08-19T10:39:54;3.65;;;1.90;;
43008;SDS011;28634;45.454;11.106;2022-08-19T10:42:21;4.70;;;2.22;;
43008;SDS011;28634;45.454;11.106;2022-08-19T10:44:48;7.15;;;2.63;;
43008;SDS011;28634;45.454;11.106;2022-08-19T10:47:17;8.32;;;2.60;;
43008;SDS011;28634;45.454;11.106;2022-08-19T10:49:54;4.30;;;2.45;;
43008;SDS011;28634;45.454;11.106;2022-08-19T10:52:41;4.75;;;2.47;;
43008;SDS011;28634;45.454;11.106;2022-08-19T10:55:16;3.75;;;2.03;;
43008;SDS011;28634;45.454;11.106;2022-08-19T10:58:08;5.45;;;2.58;;
43008;SDS011;28634;45.454;11.106;2022-08-19T11:00:37;4.05;;;2.78;;
43008;SDS011;28634;45.454;11.106;2022-08-19T11:03:04;5.88;;;2.85;;
43008;SDS011;28634;45.454;11.106;2022-08-19T11:05:31;3.88;;;3.03;;
43008;SDS011;28634;45.454;11.106;2022-08-19T11:08:04;4.97;;;3.13;;
43008;SDS011;28634;45.454;11.106;2022-08-19T11:10:49;5.43;;;3.08;;
43008;SDS011;28634;45.454;11.106;2022-08-19T11:13:20;4.18;;;3.03;;
43008;SDS011;28634;45.454;11.106;2022-08-19T11:15:47;4.28;;;2.90;;
43008;SDS011;28634;45.454;11.106;2022-08-19T11:18:22;5.40;;;3.30;;
43008;SDS011;28634;45.454;11.106;2022-08-19T11:20:49;6.55;;;3.40;;
43008;SDS011;28634;45.454;11.106;2022-08-19T11:23:16;6.53;;;3.70;;
43008;SDS011;28634;45.454;11.106;2022-08-19T11:25:43;7.10;;;3.30;;
43008;SDS011;28634;45.454;11.106;2022-08-19T11:28:11;6.43;;;4.60;;
43008;SDS011;28634;45.454;11.106;2022-08-19T11:30:39;6.80;;;4.25;;
43008;SDS011;28634;45.454;11.106;2022-08-19T11:33:06;6.53;;;4.68;;
43008;SDS011;28634;45.454;11.106;2022-08-19T11:35:33;7.13;;;4.78;;
43008;SDS011;28634;45.454;11.106;2022-08-19T11:38:01;8.38;;;5.32;;
43008;SDS011;28634;45.454;11.106;2022-08-19T11:40:34;8.18;;;6.50;;
43008;SDS011;28634;45.454;11.106;2022-08-19T11:43:01;11.68;;;5.90;;
43008;SDS011;28634;45.454;11.106;2022-08-19T11:45:29;8.15;;;6.30;;
43008;SDS011;28634;45.454;11.106;2022-08-19T11:47:57;9.70;;;7.00;;
43008;SDS011;28634;45.454;11.106;2022-08-19T11:50:24;8.70;;;7.10;;
43008;SDS011;28634;45.454;11.106;2022-08-19T11:52:55;9.70;;;6.72;;
43008;SDS011;28634;45.454;11.106;2022-08-19T11:55:22;10.70;;;7.90;;
43008;SDS011;28634;45.454;11.106;2022-08-19T11:57:50;7.82;;;6.20;;
43008;SDS011;28634;45.454;11.106;2022-08-19T12:00:17;9.07;;;6.25;;
43008;SDS011;28634;45.454;11.106;2022-08-19T12:02:45;7.40;;;6.22;;
43008;SDS011;28634;45.454;11.106;2022-08-19T12:05:12;7.63;;;4.90;;
43008;SDS011;28634;45.454;11.106;2022-08-19T12:07:39;8.00;;;5.80;;
43008;SDS011;28634;45.454;11.106;2022-08-19T12:10:07;7.15;;;4.88;;
43008;SDS011;28634;45.454;11.106;2022-08-19T12:12:36;8.25;;;6.13;;
43008;SDS011;28634;45.454;11.106;2022-08-19T12:15:09;7.75;;;5.68;;
43008;SDS011;28634;45.454;11.106;2022-08-19T12:17:37;7.00;;;5.30;;
43008;SDS011;28634;45.454;11.106;2022-08-19T12:20:04;6.60;;;4.07;;
43008;SDS011;28634;45.454;11.106;2022-08-19T12:22:35;7.63;;;4.55;;
43008;SDS011;28634;45.454;11.106;2022-08-19T12:25:04;7.68;;;5.90;;
43008;SDS011;28634;45.454;11.106;2022-08-19T12:27:31;8.00;;;6.03;;
43008;SDS011;28634;45.454;11.106;2022-08-19T12:30:08;9.73;;;6.35;;
43008;SDS011;28634;45.454;11.106;2022-08-19T12:32:37;9.52;;;5.35;;
43008;SDS011;28634;45.454;11.106;2022-08-19T12:35:04;6.88;;;4.03;;
43008;SDS011;28634;45.454;11.106;2022-08-19T12:37:33;8.48;;;5.40;;
43008;SDS011;28634;45.454;11.106;2022-08-19T12:40:00;6.82;;;5.70;;
43008;SDS011;28634;45.454;11.106;2022-08-19T12:42:28;8.70;;;4.97;;
43008;SDS011;28634;45.454;11.106;2022-08-19T12:44:56;4.60;;;2.70;;
43008;SDS011;28634;45.454;11.106;2022-08-19T12:47:23;6.78;;;5.05;;
43008;SDS011;28634;45.454;11.106;2022-08-19T12:49:52;8.07;;;5.35;;
43008;SDS011;28634;45.454;11.106;2022-08-19T12:52:25;6.97;;;5.20;;
43008;SDS011;28634;45.454;11.106;2022-08-19T12:54:54;8.20;;;6.15;;
43008;SDS011;28634;45.454;11.106;2022-08-19T12:57:23;8.45;;;6.20;;
43008;SDS011;28634;45.454;11.106;2022-08-19T12:59:59;9.18;;;5.63;;
43008;SDS011;28634;45.454;11.106;2022-08-19T13:02:29;8.73;;;6.10;;
43008;SDS011;28634;45.454;11.106;2022-08-19T13:05:04;8.03;;;4.80;;
43008;SDS011;28634;45.454;11.106;2022-08-19T13:07:34;7.18;;;4.72;;
43008;SDS011;28634;45.454;11.106;2022-08-19T13:10:03;6.90;;;4.65;;
43008;SDS011;28634;45.454;11.106;2022-08-19T13:12:32;8.07;;;4.82;;
43008;SDS011;28634;45.454;11.106;2022-08-19T13:14:59;6.28;;;4.57;;
43008;SDS011;28634;45.454;11.106;2022-08-19T13:17:27;7.05;;;4.57;;
43008;SDS011;28634;45.454;11.106;2022-08-19T13:19:54;5.93;;;4.40;;
43008;SDS011;28634;45.454;11.106;2022-08-19T13:22:21;8.45;;;4.15;;
43008;SDS011;28634;45.454;11.106;2022-08-19T13:24:50;9.13;;;4.35;;
43008;SDS011;28634;45.454;11.106;2022-08-19T13:27:17;8.40;;;4.85;;
43008;SDS011;28634;45.454;11.106;2022-08-19T13:29:44;7.38;;;4.80;;
43008;SDS011;28634;45.454;11.106;2022-08-19T13:35:16;7.18;;;4.35;;
43008;SDS011;28634;45.454;11.106;2022-08-19T13:37:43;6.68;;;4.22;;
43008;SDS011;28634;45.454;11.106;2022-08-19T13:40:14;8.30;;;4.47;;
43008;SDS011;28634;45.454;11.106;2022-08-19T13:42:46;5.72;;;3.83;;
43008;SDS011;28634;45.454;11.106;2022-08-19T13:45:18;7.78;;;3.97;;
43008;SDS011;28634;45.454;11.106;2022-08-19T13:47:47;5.53;;;3.40;;
43008;SDS011;28634;45.454;11.106;2022-08-19T13:50:20;6.22;;;3.90;;
43008;SDS011;28634;45.454;11.106;2022-08-19T13:52:52;6.32;;;3.50;;
43008;SDS011;28634;45.454;11.106;2022-08-19T13:55:20;7.30;;;3.80;;
43008;SDS011;28634;45.454;11.106;2022-08-19T13:57:54;5.57;;;3.42;;
43008;SDS011;28634;45.454;11.106;2022-08-19T14:00:23;5.47;;;3.40;;
43008;SDS011;28634;45.454;11.106;2022-08-19T14:02:53;5.30;;;3.28;;
43008;SDS011;28634;45.454;11.106;2022-08-19T14:05:22;7.57;;;3.70;;
43008;SDS011;28634;45.454;11.106;2022-08-19T14:07:50;4.85;;;3.15;;
43008;SDS011;28634;45.454;11.106;2022-08-19T14:10:18;6.50;;;3.50;;
43008;SDS011;28634;45.454;11.106;2022-08-19T14:12:46;6.68;;;3.13;;
43008;SDS011;28634;45.454;11.106;2022-08-19T14:15:14;5.10;;;2.92;;
43008;SDS011;28634;45.454;11.106;2022-08-19T14:17:42;6.50;;;3.00;;
43008;SDS011;28634;45.454;11.106;2022-08-19T14:20:11;5.20;;;3.10;;
43008;SDS011;28634;45.454;11.106;2022-08-19T14:22:44;5.50;;;3.05;;
43008;SDS011;28634;45.454;11.106;2022-08-19T14:25:16;6.00;;;3.03;;
43008;SDS011;28634;45.454;11.106;2022-08-19T14:27:45;8.30;;;3.42;;
43008;SDS011;28634;45.454;11.106;2022-08-19T14:30:15;5.07;;;2.67;;
43008;SDS011;28634;45.454;11.106;2022-08-19T14:32:44;5.70;;;2.88;;
43008;SDS011;28634;45.454;11.106;2022-08-19T14:35:12;6.68;;;3.47;;
43008;SDS011;28634;45.454;11.106;2022-08-19T14:37:41;6.18;;;2.97;;
43008;SDS011;28634;45.454;11.106;2022-08-19T14:40:15;5.40;;;2.75;;
43008;SDS011;28634;45.454;11.106;2022-08-19T14:42:46;4.43;;;2.60;;
43008;SDS011;28634;45.454;11.106;2022-08-19T14:45:14;6.03;;;2.90;;
43008;SDS011;28634;45.454;11.106;2022-08-19T14:47:41;5.20;;;2.88;;
43008;SDS011;28634;45.454;11.106;2022-08-19T14:50:11;4.30;;;2.97;;
43008;SDS011;28634;45.454;11.106;2022-08-19T14:52:44;7.05;;;3.15;;
43008;SDS011;28634;45.454;11.106;2022-08-19T14:55:15;6.07;;;2.80;;
43008;SDS011;28634;45.454;11.106;2022-08-19T14:57:43;5.18;;;2.75;;
43008;SDS011;28634;45.454;11.106;2022-08-19T15:00:11;4.55;;;2.90;;
43008;SDS011;28634;45.454;11.106;2022-08-19T15:02:40;6.25;;;2.78;;
43008;SDS011;28634;45.454;11.106;2022-08-19T15:05:08;4.43;;;2.50;;
43008;SDS011;28634;45.454;11.106;2022-08-19T15:07:35;4.90;;;3.05;;
43008;SDS011;28634;45.454;11.106;2022-08-19T15:10:04;6.10;;;2.83;;
43008;SDS011;28634;45.454;11.106;2022-08-19T15:12:36;5.55;;;2.72;;